Time;durP1;ratioP1;P1;durP2;ratioP2;P2;SDS_P1;SDS_P2;PMS_P1;PMS_P2;Temp;Humidity;BMP_temperature;BMP_pressure;BME280_temperature;BME280_humidity;BME280_pressure;Samples;Min_cycle;Max_cycle;Signal;HPM_P1;HPM_P2
2021/10/12 00:00:37;;;;;;;44.60;24.30;;;;;;;4.93;72.63;99667.58;116906;1199;137641;-63
2021/10/12 00:03:05;;;;;;;43.60;25.60;;;;;;;4.91;72.54;99662.42;117042;1198;22336;-63
2021/10/12 00:05:36;;;;;;;40.60;25.00;;;;;;;4.90;72.40;99663.33;116881;1198;138424;-63
2021/10/12 00:08:04;;;;;;;45.90;24.70;;;;;;;4.89;72.52;99659.94;117048;1198;22980;-63
2021/10/12 00:10:33;;;;;;;43.80;23.70;;;;;;;4.87;72.62;99655.09;116973;1199;22385;-63
2021/10/12 00:13:03;;;;;;;39.90;22.60;;;;;;;4.89;72.63;99658.20;116945;1198;137759;-63
2021/10/12 00:15:31;;;;;;;41.70;25.40;;;;;;;4.88;72.84;99654.50;117053;1199;22290;-63
2021/10/12 00:18:00;;;;;;;42.10;26.90;;;;;;;4.89;72.69;99655.04;116887;1197;137749;-64
2021/10/12 00:20:28;;;;;;;44.70;25.00;;;;;;;4.89;72.90;99650.89;116910;1199;23416;-63
2021/10/12 00:22:56;;;;;;;46.20;26.50;;;;;;;4.89;72.53;99653.29;117035;1199;23047;-63
2021/10/12 00:25:24;;;;;;;45.60;26.40;;;;;;;4.87;72.46;99651.80;116935;1198;137453;-63
2021/10/12 00:27:53;;;;;;;45.00;26.60;;;;;;;4.85;72.38;99647.79;117007;1199;22371;-63
2021/10/12 00:30:21;;;;;;;45.50;26.50;;;;;;;4.81;72.14;99644.15;116832;1199;137699;-63
2021/10/12 00:32:49;;;;;;;41.90;25.50;;;;;;;4.77;72.02;99643.96;116777;1199;22372;-63
2021/10/12 00:35:18;;;;;;;42.50;25.90;;;;;;;4.73;72.04;99643.55;116912;1198;139264;-63
2021/10/12 00:37:46;;;;;;;50.80;28.80;;;;;;;4.69;72.47;99644.65;117021;1199;22294;-63
2021/10/12 00:40:14;;;;;;;51.70;28.80;;;;;;;4.66;72.74;99640.02;116942;1198;22325;-63
2021/10/12 00:42:42;;;;;;;49.30;27.90;;;;;;;4.63;72.88;99635.96;116920;1198;138799;-63
2021/10/12 00:45:11;;;;;;;50.20;29.80;;;;;;;4.59;72.86;99634.45;116699;1194;23400;-62
2021/10/12 00:47:54;;;;;;;48.60;28.80;;;;;;;4.54;73.09;99631.36;116825;1199;138198;-64
2021/10/12 00:50:22;;;;;;;52.30;28.60;;;;;;;4.50;73.06;99632.66;117090;1193;22978;-64
2021/10/12 00:52:50;;;;;;;49.10;28.30;;;;;;;4.46;73.21;99632.00;117062;1198;22278;-64
2021/10/12 00:55:19;;;;;;;48.90;27.80;;;;;;;4.43;73.35;99628.36;116842;1199;137906;-64
2021/10/12 00:57:47;;;;;;;50.70;27.80;;;;;;;4.40;73.57;99628.09;116991;1199;23440;-64
2021/10/12 01:00:15;;;;;;;48.00;28.60;;;;;;;4.38;73.86;99624.19;116619;1199;139926;-64
2021/10/12 01:02:43;;;;;;;48.20;27.70;;;;;;;4.38;73.80;99621.15;117053;1199;22338;-64
2021/10/12 01:05:12;;;;;;;48.50;27.00;;;;;;;4.38;73.86;99620.61;116608;1200;137994;-64
2021/10/12 01:07:40;;;;;;;42.50;26.50;;;;;;;4.37;73.80;99613.54;116990;1199;22329;-64
2021/10/12 01:10:08;;;;;;;46.00;26.60;;;;;;;4.39;74.19;99613.55;116990;1198;23265;-63
2021/10/12 01:12:37;;;;;;;45.50;26.60;;;;;;;4.42;74.12;99613.92;116883;1199;138806;-63
2021/10/12 01:15:07;;;;;;;44.10;25.80;;;;;;;4.44;74.04;99609.02;117070;1198;22957;-62
2021/10/12 01:17:35;;;;;;;40.40;24.40;;;;;;;4.45;74.26;99606.11;116810;1199;139005;-63
2021/10/12 01:20:05;;;;;;;45.70;26.50;;;;;;;4.47;74.32;99604.33;116939;1199;22352;-63
2021/10/12 01:22:33;;;;;;;47.60;26.30;;;;;;;4.50;74.28;99604.53;116996;1199;23125;-63
2021/10/12 01:27:36;;;;;;;41.40;24.50;;;;;;;4.59;74.48;99599.80;110786;1210;545399;-63
2021/10/12 01:30:06;;;;;;;37.70;23.40;;;;;;;4.62;74.39;99600.55;111875;1203;138316;-63
2021/10/12 01:32:41;;;;;;;33.90;21.40;;;;;;;4.68;74.14;99597.70;116241;1197;22813;-64
2021/10/12 01:35:10;;;;;;;42.40;23.40;;;;;;;4.70;74.23;99592.65;116179;1204;138197;-63
2021/10/12 01:37:39;;;;;;;35.30;23.00;;;;;;;4.74;74.17;99590.97;116001;1205;22264;-63
2021/10/12 01:40:08;;;;;;;36.60;23.10;;;;;;;4.78;74.13;99588.23;116152;1199;22533;-63
2021/10/12 01:42:36;;;;;;;33.60;21.20;;;;;;;4.83;73.92;99587.25;116079;1204;138280;-63
2021/10/12 01:45:06;;;;;;;38.20;24.00;;;;;;;4.88;73.81;99585.98;116254;1204;22364;-63
2021/10/12 01:47:35;;;;;;;38.90;22.60;;;;;;;4.90;74.01;99586.81;116095;1204;138537;-64
2021/10/12 01:50:04;;;;;;;35.80;21.70;;;;;;;4.93;73.70;99582.72;116112;1204;23589;-63
2021/10/12 01:52:35;;;;;;;35.10;22.10;;;;;;;4.95;73.93;99585.61;116144;1204;22756;-63
2021/10/12 01:55:05;;;;;;;39.00;23.40;;;;;;;4.97;73.84;99583.15;116157;1204;138550;-64
2021/10/12 01:57:36;;;;;;;36.40;22.50;;;;;;;5.00;73.86;99581.02;116241;1204;22281;-63
2021/10/12 02:00:05;;;;;;;40.90;23.30;;;;;;;5.02;73.73;99579.48;116009;1205;139028;-63
2021/10/12 02:02:38;;;;;;;32.30;22.40;;;;;;;5.03;73.83;99573.73;116198;1204;22294;-63
2021/10/12 02:05:06;;;;;;;39.60;22.90;;;;;;;5.04;73.84;99569.77;116133;1204;138171;-64
2021/10/12 02:07:35;;;;;;;42.40;23.70;;;;;;;5.06;73.99;99564.63;116267;1203;22240;-63
2021/10/12 02:10:03;;;;;;;37.40;23.80;;;;;;;5.07;74.14;99568.17;116242;1204;23183;-63
2021/10/12 02:12:33;;;;;;;37.90;23.70;;;;;;;5.09;73.93;99566.59;116097;1204;137356;-63
2021/10/12 02:15:01;;;;;;;42.20;22.30;;;;;;;5.10;74.07;99564.71;116171;1200;22378;-63
2021/10/12 02:17:30;;;;;;;36.10;22.50;;;;;;;5.13;74.14;99566.61;115978;1198;137627;-63
2021/10/12 02:19:58;;;;;;;36.90;22.60;;;;;;;5.16;73.98;99564.98;116165;1205;22421;-63
2021/10/12 02:22:27;;;;;;;43.60;22.70;;;;;;;5.20;74.34;99565.84;116126;1204;23287;-63
2021/10/12 02:24:55;;;;;;;36.00;23.40;;;;;;;5.24;74.36;99563.48;116082;1197;138808;-64
2021/10/12 02:27:23;;;;;;;45.10;23.90;;;;;;;5.25;74.50;99558.55;116229;1204;23216;-65
2021/10/12 02:29:51;;;;;;;40.50;24.40;;;;;;;5.27;74.17;99555.80;116037;1204;138281;-64
2021/10/12 02:32:19;;;;;;;39.30;22.40;;;;;;;5.32;74.04;99555.64;116148;1204;22353;-65
2021/10/12 02:34:47;;;;;;;39.40;25.50;;;;;;;5.34;74.17;99554.98;116156;1205;23060;-65
2021/10/12 02:37:15;;;;;;;44.60;28.00;;;;;;;5.34;73.84;99549.59;116026;1203;137398;-64
2021/10/12 02:39:43;;;;;;;45.30;28.80;;;;;;;5.34;74.39;99548.23;116226;1204;22564;-64
2021/10/12 02:42:16;;;;;;;47.00;27.30;;;;;;;5.37;73.79;99544.42;116008;1204;137875;-63
2021/10/12 02:44:44;;;;;;;42.80;26.30;;;;;;;5.38;73.89;99542.66;116094;1205;23070;-64
2021/10/12 02:47:12;;;;;;;47.60;30.50;;;;;;;5.36;74.18;99533.38;116059;1205;137747;-64
2021/10/12 02:49:47;;;;;;;66.80;47.20;;;;;;;5.37;73.89;99530.55;116110;1204;22259;-64
2021/10/12 02:52:15;;;;;;;62.40;41.10;;;;;;;5.37;73.88;99528.21;116086;1204;23109;-64
2021/10/12 02:54:43;;;;;;;64.20;40.90;;;;;;;5.37;73.89;99526.76;116047;1204;138285;-64
2021/10/12 02:57:10;;;;;;;68.90;43.40;;;;;;;5.39;73.81;99521.05;116075;1204;22247;-64
2021/10/12 02:59:38;;;;;;;57.60;38.60;;;;;;;5.43;73.92;99521.64;116022;1205;138175;-64
2021/10/12 03:02:07;;;;;;;63.70;41.60;;;;;;;5.47;73.93;99514.73;116111;1204;22882;-64
2021/10/12 03:04:35;;;;;;;55.80;36.30;;;;;;;5.49;74.01;99516.27;116072;1205;23430;-63
2021/10/12 03:07:03;;;;;;;57.50;35.10;;;;;;;5.51;73.81;99514.09;116019;1204;137143;-64
2021/10/12 03:09:34;;;;;;;53.50;32.40;;;;;;;5.52;73.89;99515.00;116144;1205;22220;-63
2021/10/12 03:12:05;;;;;;;51.10;33.00;;;;;;;5.54;73.95;99514.35;116027;1204;138431;-64
2021/10/12 03:14:33;;;;;;;46.30;29.40;;;;;;;5.55;73.81;99514.67;116166;1205;23138;-64
2021/10/12 03:17:01;;;;;;;52.70;31.50;;;;;;;5.55;73.68;99509.44;116549;1201;137614;-64
2021/10/12 03:19:30;;;;;;;51.50;31.10;;;;;;;5.55;73.93;99505.36;116703;1200;23336;-64
2021/10/12 03:22:08;;;;;;;48.60;30.30;;;;;;;5.54;74.20;99506.04;116814;1200;22302;-64
2021/10/12 03:24:37;;;;;;;45.90;29.10;;;;;;;5.53;74.30;99506.21;116519;1200;137588;-64
2021/10/12 03:27:08;;;;;;;48.30;27.80;;;;;;;5.51;74.13;99501.30;116696;1201;22223;-63
2021/10/12 03:29:37;;;;;;;52.40;28.50;;;;;;;5.51;74.29;99498.63;116533;1201;137667;-64
2021/10/12 03:32:05;;;;;;;42.30;26.90;;;;;;;5.49;74.28;99498.97;116579;1202;22970;-63
2021/10/12 03:34:33;;;;;;;49.20;27.20;;;;;;;5.48;74.25;99497.42;116677;1200;22808;-65
2021/10/12 03:37:01;;;;;;;42.40;26.90;;;;;;;5.45;74.02;99496.55;116555;1201;137583;-65
2021/10/12 03:39:30;;;;;;;43.80;25.30;;;;;;;5.43;74.38;99497.61;116635;1201;23246;-65
2021/10/12 03:41:58;;;;;;;43.90;25.50;;;;;;;5.41;74.42;99494.25;116516;1201;137953;-65
2021/10/12 03:44:30;;;;;;;42.90;25.00;;;;;;;5.39;74.39;99492.84;116650;1201;23100;-65
2021/10/12 03:46:58;;;;;;;43.20;25.80;;;;;;;5.37;74.41;99492.88;116644;1201;22280;-65
2021/10/12 03:49:26;;;;;;;47.00;28.80;;;;;;;5.33;74.59;99487.05;116556;1194;137715;-65
2021/10/12 03:51:54;;;;;;;42.20;24.40;;;;;;;5.29;74.80;99491.48;116587;1201;22351;-65
2021/10/12 03:54:22;;;;;;;43.30;25.20;;;;;;;5.26;74.52;99487.23;116531;1201;138798;-65
2021/10/12 03:56:51;;;;;;;39.40;25.20;;;;;;;5.24;74.83;99487.09;116664;1193;22343;-64
2021/10/12 03:59:19;;;;;;;40.30;23.80;;;;;;;5.22;74.83;99484.70;116591;1201;138710;-64
2021/10/12 04:01:47;;;;;;;40.90;26.00;;;;;;;5.22;75.11;99489.94;116598;1201;22204;-65
2021/10/12 04:04:15;;;;;;;42.00;25.60;;;;;;;5.21;75.25;99487.20;116604;1193;22472;-64
2021/10/12 04:06:43;;;;;;;51.00;28.60;;;;;;;5.20;75.39;99484.39;116531;1201;138203;-64
2021/10/12 04:09:12;;;;;;;42.10;27.80;;;;;;;5.21;75.54;99484.66;116700;1201;22311;-64
2021/10/12 04:11:40;;;;;;;50.40;26.20;;;;;;;5.20;75.70;99480.76;116586;1201;139694;-64
2021/10/12 04:14:08;;;;;;;40.00;24.90;;;;;;;5.19;75.69;99478.38;116841;1199;22331;-64
2021/10/12 04:16:37;;;;;;;44.20;25.70;;;;;;;5.16;75.52;99476.50;116888;1199;22322;-64
2021/10/12 04:19:05;;;;;;;40.60;25.70;;;;;;;5.12;75.65;99469.52;116777;1199;138439;-64
2021/10/12 04:21:33;;;;;;;45.00;23.30;;;;;;;5.09;75.37;99470.25;116866;1199;22519;-64
2021/10/12 04:24:01;;;;;;;39.10;23.50;;;;;;;5.06;75.29;99472.23;116802;1199;138035;-64
2021/10/12 04:26:29;;;;;;;41.70;24.80;;;;;;;5.03;75.52;99471.61;116784;1199;22345;-64
2021/10/12 04:28:58;;;;;;;45.30;23.70;;;;;;;5.00;75.35;99470.56;116909;1198;22258;-63
2021/10/12 04:31:26;;;;;;;40.50;23.60;;;;;;;4.98;75.36;99467.45;116735;1198;137803;-64
2021/10/12 04:33:54;;;;;;;40.30;25.20;;;;;;;4.96;75.61;99467.27;116854;1198;22347;-64
2021/10/12 04:36:22;;;;;;;39.10;25.70;;;;;;;4.93;75.81;99464.77;116881;1198;137559;-64
2021/10/12 04:38:50;;;;;;;44.80;24.20;;;;;;;4.92;75.81;99465.69;117015;1199;22246;-64
2021/10/12 04:41:18;;;;;;;46.00;24.20;;;;;;;4.91;76.07;99462.05;116871;1194;139489;-64
2021/10/12 04:43:46;;;;;;;36.90;23.30;;;;;;;4.90;76.00;99456.36;116802;1199;22425;-64
2021/10/12 04:46:15;;;;;;;39.10;23.20;;;;;;;4.90;75.91;99457.52;116738;1199;22277;-64
2021/10/12 04:48:43;;;;;;;48.10;23.60;;;;;;;4.89;76.06;99453.81;116649;1199;138301;-64
2021/10/12 04:51:11;;;;;;;39.30;21.70;;;;;;;4.90;76.15;99453.67;116854;1199;22273;-64
2021/10/12 04:53:40;;;;;;;49.40;25.00;;;;;;;4.91;75.94;99453.68;116668;1199;137919;-64
2021/10/12 04:56:08;;;;;;;42.50;23.40;;;;;;;4.91;76.10;99451.08;116813;1200;22244;-64
2021/10/12 04:58:38;;;;;;;60.40;25.00;;;;;;;4.91;76.40;99454.11;116720;1199;22547;-63
2021/10/12 05:01:06;;;;;;;42.10;22.80;;;;;;;4.93;76.38;99452.84;116708;1199;138578;-64
2021/10/12 05:03:34;;;;;;;38.00;23.60;;;;;;;4.95;76.46;99449.21;116814;1198;23112;-64
2021/10/12 05:06:02;;;;;;;45.40;25.70;;;;;;;4.96;76.46;99450.94;116675;1199;138568;-64
2021/10/12 05:08:30;;;;;;;41.80;24.40;;;;;;;4.97;76.51;99445.04;116853;1199;22467;-69
2021/10/12 05:11:18;;;;;;;43.80;27.40;;;;;;;5.01;76.74;99445.63;116748;1198;137977;-63
2021/10/12 05:13:49;;;;;;;38.20;25.10;;;;;;;5.05;76.91;99445.53;116905;1193;23230;-64
2021/10/12 05:16:19;;;;;;;51.50;28.00;;;;;;;5.10;77.21;99443.77;117002;1198;23076;-63
2021/10/12 05:18:50;;;;;;;49.50;28.20;;;;;;;5.16;77.52;99436.90;116830;1198;137610;-64
2021/10/12 05:21:18;;;;;;;47.80;31.60;;;;;;;5.26;77.09;99435.61;116822;1199;22339;-65
2021/10/12 05:23:46;;;;;;;52.00;29.40;;;;;;;5.35;77.30;99433.27;116728;1199;137706;-64
2021/10/12 05:26:17;;;;;;;54.80;31.90;;;;;;;5.42;77.10;99434.36;116922;1198;22461;-64
2021/10/12 05:28:46;;;;;;;51.30;29.90;;;;;;;5.49;76.71;99434.83;116838;1199;23402;-65
2021/10/12 05:31:14;;;;;;;50.40;31.90;;;;;;;5.55;76.89;99434.14;116820;1198;138813;-65
2021/10/12 05:33:43;;;;;;;49.60;30.90;;;;;;;5.63;76.78;99432.95;116917;1198;22356;-65
2021/10/12 05:36:11;;;;;;;59.20;35.10;;;;;;;5.71;76.44;99436.10;116776;1198;138759;-65
2021/10/12 05:38:40;;;;;;;65.20;34.70;;;;;;;5.79;76.30;99434.28;116890;1197;23066;-65
2021/10/12 05:41:09;;;;;;;56.80;32.10;;;;;;;5.85;76.17;99438.70;116838;1186;139600;-65
2021/10/12 05:43:38;;;;;;;56.40;32.70;;;;;;;5.91;76.03;99435.36;116941;1195;22338;-65
2021/10/12 05:46:06;;;;;;;63.90;32.60;;;;;;;5.97;76.03;99435.52;116871;1199;22218;-66
2021/10/12 05:48:34;;;;;;;47.10;30.60;;;;;;;6.02;75.73;99437.78;116813;1198;139016;-66
2021/10/12 05:51:02;;;;;;;55.80;32.10;;;;;;;6.07;75.73;99437.13;116802;1199;22293;-65
2021/10/12 05:53:50;;;;;;;52.60;29.30;;;;;;;6.11;75.58;99436.98;116782;1198;137938;-65
2021/10/12 05:58:53;;;;;;;49.10;28.70;;;;;;;6.21;75.28;99435.11;116895;1198;22247;-64
2021/10/12 06:01:22;;;;;;;45.40;27.80;;;;;;;6.29;75.27;99439.86;116794;1199;138076;-66
2021/10/12 06:03:51;;;;;;;58.50;28.40;;;;;;;6.39;74.67;99436.11;116858;1199;22211;-65
2021/10/12 06:06:19;;;;;;;49.60;27.50;;;;;;;6.51;74.48;99435.88;116724;1199;136542;-65
2021/10/12 06:08:47;;;;;;;54.10;28.50;;;;;;;6.64;74.16;99433.20;116960;1199;22302;-65
2021/10/12 06:11:15;;;;;;;52.50;27.50;;;;;;;6.77;73.77;99430.05;116795;1198;137991;-65
2021/10/12 06:13:44;;;;;;;45.20;27.50;;;;;;;6.92;73.62;99430.12;116983;1199;22535;-65
2021/10/12 06:16:13;;;;;;;47.80;26.20;;;;;;;7.08;73.23;99424.45;116977;1198;22226;-64
2021/10/12 06:18:41;;;;;;;50.90;27.10;;;;;;;7.24;72.61;99423.46;116826;1198;138116;-64
2021/10/12 06:21:09;;;;;;;46.80;28.60;;;;;;;7.41;71.98;99421.25;117059;1198;22274;-64
2021/10/12 06:23:39;;;;;;;45.80;29.60;;;;;;;7.57;71.35;99417.52;116857;1198;138081;-63
2021/10/12 06:26:07;;;;;;;48.40;30.20;;;;;;;7.74;70.80;99417.36;117032;1199;22365;-64
2021/10/12 06:28:35;;;;;;;42.90;26.60;;;;;;;7.89;69.95;99418.66;117021;1198;22305;-65
2021/10/12 06:31:03;;;;;;;47.60;25.10;;;;;;;8.00;69.31;99413.99;116866;1198;137905;-65
2021/10/12 06:33:31;;;;;;;47.90;26.40;;;;;;;8.08;68.88;99417.60;116898;1197;22357;-64
2021/10/12 06:35:59;;;;;;;44.40;26.80;;;;;;;8.14;68.40;99420.64;116865;1198;137898;-64
2021/10/12 06:38:28;;;;;;;47.20;28.40;;;;;;;8.20;68.38;99420.05;116876;1199;22226;-63
2021/10/12 06:40:56;;;;;;;40.00;25.90;;;;;;;8.26;68.17;99417.52;116915;1198;24477;-64
2021/10/12 06:43:24;;;;;;;44.00;26.20;;;;;;;8.34;68.10;99420.53;116765;1198;138980;-64
2021/10/12 06:45:52;;;;;;;39.80;25.70;;;;;;;8.41;68.02;99419.34;116975;1198;22350;-63
2021/10/12 06:48:20;;;;;;;43.20;26.40;;;;;;;8.49;68.10;99416.13;116889;1198;138259;-64
2021/10/12 06:50:48;;;;;;;45.40;28.20;;;;;;;8.57;68.27;99417.29;116987;1198;22985;-65
2021/10/12 06:53:39;;;;;;;;;;;;;;;8.68;68.12;99419.02;116910;1199;138463;-64
2021/10/12 06:56:08;;;;;;;40.20;24.20;;;;;;;8.76;68.22;99417.14;116958;1198;22388;-64
2021/10/12 06:58:36;;;;;;;43.50;26.00;;;;;;;8.83;68.12;99412.67;116923;1198;23237;-64
2021/10/12 07:01:20;;;;;;;40.80;24.20;;;;;;;8.92;68.13;99409.00;116881;1199;138978;-65
2021/10/12 07:03:49;;;;;;;39.50;25.30;;;;;;;8.99;68.02;99412.13;116945;1197;22344;-64
2021/10/12 07:06:18;;;;;;;44.80;26.60;;;;;;;9.08;67.95;99408.63;116786;1199;140092;-64
2021/10/12 07:08:46;;;;;;;43.40;24.90;;;;;;;9.19;67.68;99408.45;116992;1197;22207;-64
2021/10/12 07:11:14;;;;;;;41.50;25.10;;;;;;;9.30;67.25;99410.33;116841;1198;139766;-64
2021/10/12 07:13:49;;;;;;;38.00;24.10;;;;;;;9.39;67.05;99409.04;116843;1199;23136;-64
2021/10/12 07:16:21;;;;;;;42.50;24.80;;;;;;;9.47;66.50;99400.06;116975;1198;22153;-65
2021/10/12 07:18:50;;;;;;;45.20;25.80;;;;;;;9.56;66.70;99401.69;116849;1197;137866;-65
2021/10/12 07:21:18;;;;;;;43.40;25.60;;;;;;;9.64;66.61;99401.79;117014;1199;22314;-65
2021/10/12 07:23:47;;;;;;;35.00;22.60;;;;;;;9.75;66.46;99398.95;116847;1198;138095;-65
2021/10/12 07:26:15;;;;;;;35.80;24.30;;;;;;;9.85;66.19;99395.36;116965;1199;23313;-65
2021/10/12 07:28:44;;;;;;;37.50;23.40;;;;;;;9.93;65.98;99389.48;116995;1198;22366;-65
2021/10/12 07:31:12;;;;;;;40.60;24.70;;;;;;;10.02;66.20;99389.60;116907;1199;139054;-65
2021/10/12 07:33:40;;;;;;;41.60;25.90;;;;;;;10.12;65.77;99385.57;117019;1198;22290;-65
2021/10/12 07:36:08;;;;;;;39.50;25.90;;;;;;;10.21;65.40;99387.42;116863;1197;138575;-64
2021/10/12 07:38:36;;;;;;;49.90;29.50;;;;;;;10.30;65.30;99385.70;117012;1198;22316;-65
2021/10/12 07:41:04;;;;;;;36.90;22.80;;;;;;;10.40;65.05;99383.65;116967;1199;22099;-65
2021/10/12 07:43:35;;;;;;;49.30;28.30;;;;;;;10.48;65.13;99382.36;116842;1199;138163;-64
2021/10/12 07:46:03;;;;;;;42.90;22.90;;;;;;;10.59;64.98;99387.73;116997;1199;22300;-64
2021/10/12 07:48:32;;;;;;;31.80;19.10;;;;;;;10.69;64.95;99388.08;116852;1194;137409;-64
2021/10/12 07:51:04;;;;;;;26.80;18.90;;;;;;;10.77;64.51;99384.15;116958;1199;22318;-64
2021/10/12 07:53:36;;;;;;;29.30;18.40;;;;;;;10.83;64.00;99376.50;116902;1198;137470;-64
2021/10/12 07:56:08;;;;;;;33.30;18.50;;;;;;;10.90;63.38;99372.95;116947;1199;22306;-64
2021/10/12 07:58:37;;;;;;;26.50;17.30;;;;;;;10.96;63.20;99373.68;116944;1199;22331;-64
2021/10/12 08:01:05;;;;;;;29.30;16.90;;;;;;;11.03;62.78;99371.98;116987;1198;138719;-64
2021/10/12 08:03:33;;;;;;;27.90;16.20;;;;;;;11.09;62.60;99372.90;117051;1198;22284;-64
2021/10/12 08:06:01;;;;;;;25.20;15.90;;;;;;;11.15;62.19;99368.23;116930;1198;138055;-64
2021/10/12 08:08:30;;;;;;;36.00;17.60;;;;;;;11.20;61.92;99365.48;117052;1198;22305;-64
2021/10/12 08:11:16;;;;;;;25.60;17.10;;;;;;;11.27;61.63;99359.44;116943;1198;138731;-64
2021/10/12 08:13:46;;;;;;;23.20;16.90;;;;;;;11.30;61.44;99356.23;116996;1198;22981;-64
2021/10/12 08:16:18;;;;;;;32.60;17.10;;;;;;;11.34;61.56;99347.31;116983;1199;22320;-64
2021/10/12 08:18:46;;;;;;;29.20;17.30;;;;;;;11.38;61.35;99341.83;116775;1199;137366;-64
2021/10/12 08:21:14;;;;;;;30.80;18.20;;;;;;;11.40;61.02;99336.48;116871;1199;22223;-64
2021/10/12 08:23:42;;;;;;;36.10;17.90;;;;;;;11.43;61.11;99332.77;116757;1199;137514;-64
2021/10/12 08:26:10;;;;;;;35.40;16.60;;;;;;;11.47;61.25;99333.27;116859;1199;22389;-64
2021/10/12 08:28:38;;;;;;;31.40;18.20;;;;;;;11.52;61.01;99331.77;116930;1199;23460;-64
2021/10/12 08:31:06;;;;;;;38.90;18.00;;;;;;;11.56;60.78;99330.08;116781;1198;137469;-64
2021/10/12 08:33:35;;;;;;;29.60;17.50;;;;;;;11.60;60.63;99325.89;116826;1200;22329;-65
2021/10/12 08:36:04;;;;;;;35.70;18.00;;;;;;;11.65;60.84;99325.46;116732;1199;137518;-65
2021/10/12 08:38:55;;;;;;;26.60;16.90;;;;;;;11.72;60.90;99321.05;116870;1199;22787;-65
2021/10/12 08:41:25;;;;;;;32.90;19.30;;;;;;;11.78;60.08;99322.03;116775;1199;137661;-65
2021/10/12 08:43:55;;;;;;;29.90;17.40;;;;;;;11.81;59.76;99316.41;116700;1199;22408;-65
2021/10/12 08:46:27;;;;;;;41.90;19.30;;;;;;;11.86;59.52;99315.86;116896;1199;22305;-65
2021/10/12 08:48:56;;;;;;;34.20;18.20;;;;;;;11.90;59.45;99314.77;116733;1199;137954;-65
2021/10/12 08:51:25;;;;;;;32.30;17.50;;;;;;;11.96;59.28;99311.73;116857;1199;22339;-65
2021/10/12 08:53:53;;;;;;;29.10;16.30;;;;;;;12.01;58.75;99308.17;116789;1199;137445;-65
2021/10/12 08:56:21;;;;;;;29.20;17.60;;;;;;;12.06;58.80;99309.60;116874;1199;22301;-64
2021/10/12 08:58:49;;;;;;;30.80;17.80;;;;;;;12.10;58.61;99306.18;116839;1199;23056;-64
2021/10/12 09:01:17;;;;;;;30.30;18.40;;;;;;;12.13;58.38;99301.79;116736;1199;138508;-64
2021/10/12 09:06:26;;;;;;;28.80;18.80;;;;;;;12.20;58.39;99296.38;116808;1199;151839;-64
2021/10/12 09:09:16;;;;;;;44.70;28.10;;;;;;;12.22;58.38;99295.84;116867;1198;23285;-64
2021/10/12 09:11:44;;;;;;;41.20;22.90;;;;;;;12.24;58.43;99292.78;116776;1198;137684;-64
2021/10/12 09:14:12;;;;;;;45.20;28.40;;;;;;;12.28;58.25;99288.55;116981;1199;22272;-64
2021/10/12 09:16:43;;;;;;;36.00;21.90;;;;;;;12.32;58.15;99286.59;114169;1198;22990;-63
2021/10/12 09:19:16;;;;;;;33.00;18.80;;;;;;;12.37;58.16;99284.02;116852;1199;138301;-64
2021/10/12 09:21:52;;;;;;;31.20;19.80;;;;;;;12.40;57.82;99277.96;117011;1198;23668;-65
2021/10/12 09:24:25;;;;;;;37.70;20.90;;;;;;;12.43;57.95;99276.02;116825;1198;138991;-64
2021/10/12 09:26:54;;;;;;;30.60;20.40;;;;;;;12.46;57.99;99276.51;116881;1199;22450;-65
2021/10/12 09:29:33;;;;;;;35.50;19.20;;;;;;;12.49;57.89;99267.23;116736;1199;139455;-64
2021/10/12 09:32:04;;;;;;;32.60;20.60;;;;;;;12.52;58.09;99259.95;116867;1199;22453;-64
2021/10/12 09:34:32;;;;;;;27.90;17.20;;;;;;;12.59;57.79;99256.20;116861;1199;22303;-66
2021/10/12 09:37:01;;;;;;;40.90;20.10;;;;;;;12.64;58.13;99255.21;116788;1199;137913;-65
2021/10/12 09:39:49;;;;;;;64.70;33.10;;;;;;;12.71;58.06;99251.47;116885;1199;22391;-65
2021/10/12 09:42:18;;;;;;;47.60;27.00;;;;;;;12.79;57.85;99247.78;116722;1199;137353;-67
2021/10/12 09:44:51;;;;;;;39.40;21.80;;;;;;;12.83;58.10;99246.06;116802;1199;22357;-65
2021/10/12 09:47:24;;;;;;;34.80;19.30;;;;;;;12.86;57.55;99241.84;116707;1199;137633;-64
2021/10/12 09:50:08;;;;;;;32.00;19.60;;;;;;;12.90;57.55;99240.90;117062;1197;23626;-64
2021/10/12 09:52:45;;;;;;;32.50;18.70;;;;;;;12.94;57.92;99237.98;116981;1198;22220;-63
2021/10/12 09:55:38;;;;;;;29.70;17.00;;;;;;;13.01;57.63;99234.45;116735;1199;138473;-64
2021/10/12 09:58:08;;;;;;;34.70;18.60;;;;;;;13.06;57.57;99229.51;116903;1199;22350;-64
2021/10/12 10:00:36;;;;;;;58.40;18.40;;;;;;;13.09;57.24;99226.22;116622;1199;137924;-63
2021/10/12 10:03:05;;;;;;;28.50;16.80;;;;;;;13.14;56.79;99225.02;116973;1192;22308;-64
2021/10/12 10:05:34;;;;;;;37.50;17.30;;;;;;;13.13;56.28;99218.08;116774;1199;138702;-64
2021/10/12 10:08:02;;;;;;;26.50;17.50;;;;;;;13.14;56.62;99213.77;117027;1198;23518;-64
2021/10/12 10:10:44;;;;;;;30.10;18.50;;;;;;;13.15;56.66;99217.28;116804;1198;23091;-64
2021/10/12 10:13:16;;;;;;;42.20;20.10;;;;;;;13.16;56.64;99213.83;116928;1198;137333;-64
2021/10/12 10:15:45;;;;;;;34.50;19.50;;;;;;;13.16;56.65;99210.48;117101;1198;23120;-64
2021/10/12 10:18:13;;;;;;;33.40;20.00;;;;;;;13.18;56.69;99207.09;116771;1199;138445;-64
2021/10/12 10:20:49;;;;;;;38.10;20.60;;;;;;;13.19;56.58;99200.95;117056;1198;23179;-64
2021/10/12 10:24:08;;;;;;;29.60;19.90;;;;;;;13.20;56.85;99200.02;116896;1199;138421;-64
2021/10/12 10:26:40;;;;;;;36.00;20.00;;;;;;;13.23;56.72;99194.55;117065;1198;22439;-64
2021/10/12 10:29:21;;;;;;;33.60;20.30;;;;;;;13.25;56.60;99188.23;117092;1198;22318;-64
2021/10/12 10:32:17;;;;;;;36.50;19.20;;;;;;;13.29;56.35;99192.56;117031;1198;22303;-64
2021/10/12 10:34:46;;;;;;;26.90;17.20;;;;;;;13.32;56.10;99191.52;116979;1198;22435;-64
2021/10/12 10:37:17;;;;;;;42.60;19.80;;;;;;;13.34;56.07;99191.77;116753;1198;137343;-64
2021/10/12 10:39:46;;;;;;;47.70;19.20;;;;;;;13.37;56.45;99188.81;116832;1199;22358;-65
2021/10/12 10:42:27;;;;;;;33.20;18.00;;;;;;;13.40;56.12;99184.15;116720;1199;138488;-65
2021/10/12 10:45:00;;;;;;;25.30;16.60;;;;;;;13.42;56.07;99181.60;116831;1199;22244;-65
2021/10/12 10:47:40;;;;;;;24.50;16.40;;;;;;;13.44;55.64;99179.55;112704;1193;22444;-65
2021/10/12 10:50:30;;;;;;;26.40;17.30;;;;;;;13.45;55.50;99177.57;116936;1198;138302;-65
2021/10/12 10:53:04;;;;;;;27.20;15.80;;;;;;;13.42;55.57;99174.04;117084;1198;22327;-65
2021/10/12 10:55:40;;;;;;;35.50;17.50;;;;;;;13.41;55.66;99173.29;116927;1198;138771;-65
2021/10/12 10:58:21;;;;;;;23.50;15.10;;;;;;;13.40;55.66;99169.70;116991;1198;22505;-65
2021/10/12 11:00:49;;;;;;;30.50;16.40;;;;;;;13.39;55.51;99166.80;116897;1199;138498;-65
2021/10/12 11:03:30;;;;;;;28.90;14.80;;;;;;;13.37;55.36;99164.79;117000;1199;22289;-65
2021/10/12 11:05:59;;;;;;;36.80;15.90;;;;;;;13.37;55.84;99162.11;116891;1198;137683;-65
2021/10/12 11:08:33;;;;;;;22.80;13.30;;;;;;;13.38;56.24;99155.91;116972;1198;23080;-64
2021/10/12 11:11:02;;;;;;;23.90;14.00;;;;;;;13.39;55.66;99158.64;116960;1198;22462;-65
2021/10/12 11:13:38;;;;;;;22.10;13.60;;;;;;;13.39;55.46;99155.04;116910;1198;137652;-65
2021/10/12 11:16:10;;;;;;;23.90;13.70;;;;;;;13.39;55.38;99155.91;115210;1192;24219;-64
2021/10/12 11:18:44;;;;;;;26.90;16.10;;;;;;;13.39;55.39;99154.21;116892;1198;138704;-64
2021/10/12 11:21:16;;;;;;;42.00;24.30;;;;;;;13.39;55.42;99149.29;117036;1198;22298;-64
2021/10/12 11:23:51;;;;;;;29.10;15.50;;;;;;;13.40;55.70;99150.10;116997;1199;22333;-64
2021/10/12 11:26:19;;;;;;;33.20;17.30;;;;;;;13.40;56.19;99148.13;116863;1198;137257;-64
2021/10/12 11:28:51;;;;;;;22.60;14.90;;;;;;;13.42;55.95;99148.98;116981;1198;22581;-64
2021/10/12 11:31:24;;;;;;;31.70;17.30;;;;;;;13.41;55.59;99144.51;116890;1199;137401;-64
2021/10/12 11:34:01;;;;;;;25.70;14.20;;;;;;;13.39;55.55;99143.75;117004;1198;22301;-64